Time;durP1;ratioP1;P1;durP2;ratioP2;P2;SDS_P1;SDS_P2;PMS_P1;PMS_P2;Temp;Humidity;BMP_temperature;BMP_pressure;BME280_temperature;BME280_humidity;BME280_pressure;Samples;Min_cycle;Max_cycle;Signal;HPM_P1;HPM_P2
2023/01/12 00:01:26;;;;;;;;;;;;;;;11.43;41.61;99473.47;4463001;32;34279;-85
2023/01/12 00:03:53;;;;;;;;;;;;;;;11.48;41.52;99474.41;4479826;32;34288;-89
2023/01/12 00:06:40;;;;;;;;;;;;;;;11.37;41.78;99476.00;4483595;32;35857;-92
2023/01/12 00:09:07;;;;;;;;;;;;;;;11.42;41.73;99476.91;4473066;32;34004;-80
2023/01/12 00:11:35;;;;;;;;;;;;;;;11.48;41.79;99487.41;4457965;32;34550;-81
2023/01/12 00:14:03;;;;;;;;;;;;;;;11.75;41.39;99488.63;4468024;32;33518;-82
2023/01/12 00:16:33;;;;;;;;;;;;;;;11.69;41.31;99494.59;4477297;32;34178;-90
2023/01/12 00:19:02;;;;;;;;;;;;;;;11.49;41.75;99496.06;4482764;32;34211;-81
2023/01/12 00:21:33;;;;;;;;;;;;;;;11.44;42.09;99490.81;4481612;32;33793;-81
2023/01/12 00:24:00;;;;;;;;;;;;;;;11.33;42.46;99489.78;4479554;32;33460;-80
2023/01/12 00:26:27;;;;;;;;;;;;;;;11.36;42.52;99485.47;4483501;32;34339;-90
2023/01/12 00:28:54;;;;;;;;;;;;;;;11.53;42.30;99477.06;4482898;32;35139;-91
2023/01/12 00:31:22;;;;;;;;;;;;;;;11.63;41.97;99479.81;4483647;32;34229;-81
2023/01/12 00:33:49;;;;;;;;;;;;;;;11.64;42.11;99484.16;4483468;32;33795;-81
2023/01/12 00:36:16;;;;;;;;;;;;;;;11.85;41.67;99474.91;4483271;32;34440;-81
2023/01/12 00:38:44;;;;;;;;;;;;;;;11.76;41.91;99480.84;4467761;32;35231;-81
2023/01/12 00:45:20;;;;;;;;;;;;;;;11.71;42.03;99481.66;4482618;32;34094;-85
2023/01/12 00:46:45;;;;;;;;;;;;;;;11.77;42.35;99487.78;4481798;32;34530;-80
2023/01/12 00:49:12;;;;;;;;;;;;;;;11.89;42.25;99481.88;4482927;32;34233;-81
2023/01/12 00:51:40;;;;;;;;;;;;;;;11.89;42.38;99487.09;4480300;32;35342;-83
2023/01/12 00:54:07;;;;;;;;;;;;;;;11.83;42.40;99485.31;4456500;32;32802;-91
2023/01/12 00:56:34;;;;;;;;;;;;;;;11.95;42.21;99481.97;4482528;32;34688;-81
2023/01/12 00:59:02;;;;;;;;;;;;;;;12.12;41.88;99488.25;4483158;32;34065;-84
2023/01/12 01:01:31;;;;;;;;;;;;;;;11.99;42.09;99493.28;4473409;32;34774;-89
2023/01/12 01:03:59;;;;;;;;;;;;;;;12.11;42.12;99491.69;4483295;32;32850;-83
2023/01/12 01:06:26;;;;;;;;;;;;;;;12.27;41.94;99494.47;4482160;32;34099;-82
2023/01/12 01:08:55;;;;;;;;;;;;;;;12.14;41.92;99491.75;4472886;32;35187;-81
2023/01/12 01:11:22;;;;;;;;;;;;;;;12.25;41.85;99504.00;4477199;32;34096;-81
2023/01/12 01:13:50;;;;;;;;;;;;;;;12.29;41.85;99505.78;4469262;32;34362;-84
2023/01/12 01:16:17;;;;;;;;;;;;;;;12.19;42.36;99507.38;4483106;32;33858;-81
2023/01/12 01:18:45;;;;;;;;;;;;;;;12.50;41.70;99507.72;4483152;32;34024;-81
2023/01/12 01:21:13;;;;;;;;;;;;;;;12.28;42.18;99504.91;4482690;32;35265;-91
2023/01/12 01:23:40;;;;;;;;;;;;;;;12.34;42.27;99512.75;4483032;32;34318;-80
2023/01/12 01:26:18;;;;;;;;;;;;;;;12.26;42.66;99509.19;4463037;32;34115;-82
2023/01/12 01:28:45;;;;;;;;;;;;;;;12.32;42.72;99513.59;4467747;32;34499;-81
2023/01/12 01:31:17;;;;;;;;;;;;;;;12.24;43.17;99510.06;4481551;32;34055;-89
2023/01/12 01:33:44;;;;;;;;;;;;;;;12.31;43.08;99517.94;4482918;32;34178;-80
2023/01/12 01:36:11;;;;;;;;;;;;;;;12.34;43.25;99522.28;4483258;32;34993;-81
2023/01/12 01:38:39;;;;;;;;;;;;;;;12.48;43.11;99514.66;4482842;32;34309;-81
2023/01/12 01:41:06;;;;;;;;;;;;;;;12.53;43.19;99526.81;4463764;32;34765;-79
2023/01/12 01:43:53;;;;;;;;;;;;;;;12.35;43.61;99522.31;4467229;32;31652;-91
2023/01/12 01:46:29;;;;;;;;;;;;;;;12.55;43.35;99521.66;4478276;32;34040;-82
2023/01/12 01:48:56;;;;;;;;;;;;;;;12.24;44.08;99523.06;4478513;32;34844;-82
2023/01/12 01:51:24;;;;;;;;;;;;;;;12.45;43.59;99520.69;4465942;32;34257;-81
2023/01/12 01:53:51;;;;;;;;;;;;;;;12.27;43.84;99515.25;4477954;32;33425;-79
2023/01/12 01:56:24;;;;;;;;;;;;;;;11.77;44.62;99523.28;4471765;32;33977;-84
2023/01/12 01:58:52;;;;;;;;;;;;;;;11.94;44.34;99532.22;4464044;32;34415;-81
2023/01/12 02:01:19;;;;;;;;;;;;;;;11.92;44.33;99523.50;4482763;32;34986;-81
2023/01/12 02:03:46;;;;;;;;;;;;;;;11.87;44.17;99528.66;4482811;32;34305;-92
2023/01/12 02:06:14;;;;;;;;;;;;;;;12.09;43.68;99524.59;4481515;32;34340;-81
2023/01/12 02:08:45;;;;;;;;;;;;;;;12.38;43.08;99524.06;4478184;32;34835;-81
2023/01/12 02:16:53;;;;;;;;;;;;;;;12.25;43.01;99530.84;4482545;32;34186;-80
2023/01/12 02:19:21;;;;;;;;;;;;;;;10.36;46.93;99539.09;4479737;32;34408;-89
2023/01/12 02:21:51;;;;;;;;;;;;;;;11.18;45.11;99538.00;4467276;32;34298;-88
2023/01/12 02:24:24;;;;;;;;;;;;;;;11.38;44.75;99534.84;4471047;32;32889;-92
2023/01/12 02:26:58;;;;;;;;;;;;;;;11.43;44.39;99533.16;4481422;32;35093;-81
2023/01/12 02:29:40;;;;;;;;;;;;;;;11.72;44.18;99530.13;4467687;32;33237;-83
2023/01/12 02:32:22;;;;;;;;;;;;;;;12.11;43.42;99522.88;4482347;32;34326;-81
2023/01/12 02:34:55;;;;;;;;;;;;;;;11.96;43.86;99529.63;4482021;32;33225;-79
2023/01/12 02:37:37;;;;;;;;;;;;;;;12.11;43.69;99528.06;4481328;32;34087;-81
2023/01/12 02:40:06;;;;;;;;;;;;;;;12.28;43.34;99536.09;4467481;32;34193;-81
2023/01/12 02:42:40;;;;;;;;;;;;;;;12.51;42.83;99533.75;4468104;32;34971;-88
2023/01/12 02:45:26;;;;;;;;;;;;;;;12.45;43.08;99538.88;4483308;32;33468;-83
2023/01/12 02:47:59;;;;;;;;;;;;;;;12.44;43.07;99539.75;4483931;32;34094;-79
2023/01/12 02:50:39;;;;;;;;;;;;;;;12.52;42.91;99532.88;4479812;32;33925;-81
2023/01/12 02:53:09;;;;;;;;;;;;;;;12.69;42.65;99532.19;4469098;32;34815;-81
2023/01/12 02:55:36;;;;;;;;;;;;;;;12.77;42.40;99528.81;4465199;32;33333;-87
2023/01/12 02:58:03;;;;;;;;;;;;;;;12.87;42.31;99519.34;4454793;32;33791;-81
2023/01/12 03:00:30;;;;;;;;;;;;;;;12.61;42.69;99517.41;4458164;32;35000;-91
2023/01/12 03:02:58;;;;;;;;;;;;;;;12.68;42.58;99522.63;4468815;32;34234;-81
2023/01/12 03:05:25;;;;;;;;;;;;;;;12.79;42.39;99521.87;4471460;32;34384;-81
2023/01/12 03:07:57;;;;;;;;;;;;;;;12.81;42.43;99527.13;4483995;32;34006;-81
2023/01/12 03:10:34;;;;;;;;;;;;;;;12.75;42.49;99529.66;4469229;32;35363;-81
2023/01/12 03:13:05;;;;;;;;;;;;;;;12.87;42.28;99529.75;4481733;32;34362;-87
2023/01/12 03:15:36;;;;;;;;;;;;;;;12.88;42.28;99531.53;4466495;32;34119;-81
2023/01/12 03:18:13;;;;;;;;;;;;;;;12.77;42.44;99527.97;4469525;32;34942;-87
2023/01/12 03:20:49;;;;;;;;;;;;;;;12.36;43.33;99524.06;4469037;32;34875;-82
2023/01/12 03:23:18;;;;;;;;;;;;;;;11.40;45.52;99527.94;4462983;32;34314;-81
2023/01/12 03:25:46;;;;;;;;;;;;;;;12.02;43.89;99517.59;4471437;32;33393;-81
2023/01/12 03:28:13;;;;;;;;;;;;;;;12.26;43.53;99513.53;4468547;32;34866;-80
2023/01/12 03:30:42;;;;;;;;;;;;;;;12.49;43.17;99522.44;4469073;32;33961;-80
2023/01/12 03:33:09;;;;;;;;;;;;;;;12.57;43.03;99515.59;4484002;32;34105;-90
2023/01/12 03:35:49;;;;;;;;;;;;;;;12.56;42.93;99524.25;4461996;32;33439;-81
2023/01/12 03:38:37;;;;;;;;;;;;;;;12.26;43.67;99514.41;4465925;32;34100;-82
2023/01/12 03:41:05;;;;;;;;;;;;;;;11.62;44.79;99517.00;4483972;32;34345;-89
2023/01/12 03:43:37;;;;;;;;;;;;;;;11.98;44.14;99502.81;4470036;32;34030;-80
2023/01/12 03:46:07;;;;;;;;;;;;;;;11.80;44.11;99508.59;4456778;32;34290;-89
2023/01/12 03:48:38;;;;;;;;;;;;;;;11.86;43.48;99507.84;4482027;32;34021;-82
2023/01/12 03:51:24;;;;;;;;;;;;;;;11.59;44.19;99514.41;4483187;32;34468;-80
2023/01/12 03:53:52;;;;;;;;;;;;;;;11.71;43.86;99510.22;4482972;32;35317;-81
2023/01/12 03:56:20;;;;;;;;;;;;;;;11.64;44.08;99517.91;4469623;32;32810;-81
2023/01/12 03:58:47;;;;;;;;;;;;;;;11.80;43.73;99518.13;4469337;32;34943;-81
2023/01/12 04:01:14;;;;;;;;;;;;;;;11.96;43.69;99514.91;4469810;32;34273;-82
2023/01/12 04:03:43;;;;;;;;;;;;;;;12.15;43.18;99522.06;4482754;32;35053;-81
2023/01/12 04:06:10;;;;;;;;;;;;;;;12.21;43.24;99520.41;4469729;32;33837;-82
2023/01/12 04:08:37;;;;;;;;;;;;;;;12.47;43.05;99513.78;4483051;32;33641;-81
2023/01/12 04:12:08;;;;;;;;;;;;;;;12.39;43.16;99510.22;4483581;32;34342;-91
2023/01/12 04:13:53;;;;;;;;;;;;;;;12.46;43.06;99512.00;4472377;32;33850;-82
2023/01/12 04:16:20;;;;;;;;;;;;;;;12.45;43.14;99510.28;4482651;32;32937;-87
2023/01/12 04:18:47;;;;;;;;;;;;;;;12.12;43.99;99506.47;4474346;32;33847;-81
2023/01/12 04:24:01;;;;;;;;;;;;;;;12.41;43.35;99508.50;4483565;32;34959;-80
2023/01/12 04:26:28;;;;;;;;;;;;;;;12.62;42.88;99502.66;4474721;32;34156;-91
2023/01/12 04:28:55;;;;;;;;;;;;;;;12.76;42.60;99505.37;4469519;32;34163;-91
2023/01/12 04:31:22;;;;;;;;;;;;;;;12.59;42.91;99508.69;4483012;32;37400;-88
2023/01/12 04:33:50;;;;;;;;;;;;;;;12.70;42.55;99510.53;4482261;32;34994;-85
2023/01/12 04:36:17;;;;;;;;;;;;;;;12.79;42.35;99505.41;4483549;32;32673;-89
2023/01/12 04:38:46;;;;;;;;;;;;;;;12.75;42.48;99514.91;4477759;32;33938;-81
2023/01/12 04:41:13;;;;;;;;;;;;;;;13.10;41.57;99511.75;4483440;32;34464;-84
2023/01/12 04:43:40;;;;;;;;;;;;;;;12.26;43.24;99514.41;4483817;31;34455;-84
2023/01/12 04:46:09;;;;;;;;;;;;;;;12.38;43.07;99513.66;4483178;32;33758;-89
2023/01/12 04:48:42;;;;;;;;;;;;;;;12.16;43.69;99513.44;4483209;32;33551;-91
2023/01/12 04:51:10;;;;;;;;;;;;;;;12.48;43.23;99518.09;4469465;32;35439;-81
2023/01/12 04:53:37;;;;;;;;;;;;;;;12.51;43.28;99520.75;4482318;32;35158;-81
2023/01/12 04:56:04;;;;;;;;;;;;;;;12.60;43.13;99525.16;4478784;32;34073;-87
2023/01/12 04:58:32;;;;;;;;;;;;;;;12.76;42.89;99516.66;4467388;32;33741;-81
2023/01/12 05:01:09;;;;;;;;;;;;;;;12.23;44.17;99514.34;4476841;32;34521;-91
2023/01/12 05:03:37;;;;;;;;;;;;;;;12.63;43.52;99518.28;4476406;32;35031;-90
2023/01/12 05:06:04;;;;;;;;;;;;;;;12.76;43.34;99518.38;4465423;32;33239;-89
2023/01/12 05:11:19;;;;;;;;;;;;;;;12.87;43.25;99511.53;4462610;32;34154;-91
2023/01/12 05:13:47;;;;;;;;;;;;;;;12.83;43.27;99522.78;4469045;32;33943;-81
2023/01/12 05:16:15;;;;;;;;;;;;;;;12.87;43.35;99530.63;4479231;32;33227;-80
2023/01/12 05:18:43;;;;;;;;;;;;;;;12.89;43.27;99535.87;4476115;32;34311;-81
2023/01/12 05:21:11;;;;;;;;;;;;;;;12.64;43.75;99538.22;4468769;32;34082;-92
2023/01/12 05:23:39;;;;;;;;;;;;;;;12.87;43.39;99542.78;4478447;32;35032;-82
2023/01/12 05:26:06;;;;;;;;;;;;;;;12.65;43.78;99542.59;4482284;32;32909;-81
2023/01/12 05:28:33;;;;;;;;;;;;;;;12.04;45.06;99540.97;4460285;32;33725;-85
2023/01/12 05:31:02;;;;;;;;;;;;;;;12.29;44.70;99548.22;4482327;32;32825;-90
2023/01/12 05:33:30;;;;;;;;;;;;;;;12.47;44.06;99537.19;4467804;32;35100;-92
2023/01/12 05:35:57;;;;;;;;;;;;;;;11.64;46.01;99538.69;4469209;32;33850;-81
2023/01/12 05:38:24;;;;;;;;;;;;;;;11.89;45.50;99533.84;4483128;32;33893;-81
2023/01/12 05:40:51;;;;;;;;;;;;;;;12.15;44.53;99535.06;4482940;32;34332;-89
2023/01/12 05:46:06;;;;;;;;;;;;;;;10.16;49.73;99552.50;4478855;32;33658;-83
2023/01/12 05:48:33;;;;;;;;;;;;;;;11.19;47.00;99544.91;4483450;32;34313;-83
2023/01/12 05:51:01;;;;;;;;;;;;;;;11.57;46.10;99546.38;4474368;32;34488;-80
2023/01/12 05:53:29;;;;;;;;;;;;;;;11.38;46.07;99540.91;4478632;32;33984;-89
2023/01/12 05:55:56;;;;;;;;;;;;;;;12.15;44.46;99542.84;4483260;32;32971;-91
2023/01/12 05:58:23;;;;;;;;;;;;;;;11.90;44.98;99546.00;4479168;32;33854;-79
2023/01/12 06:00:51;;;;;;;;;;;;;;;11.74;45.36;99552.66;4475964;32;34132;-89
2023/01/12 06:03:20;;;;;;;;;;;;;;;11.72;45.30;99545.72;4483058;32;33841;-88
2023/01/12 06:05:54;;;;;;;;;;;;;;;11.56;45.92;99540.31;4483110;32;33051;-89
2023/01/12 06:08:22;;;;;;;;;;;;;;;11.83;45.37;99539.84;4482711;31;34960;-87
2023/01/12 06:10:49;;;;;;;;;;;;;;;11.95;44.87;99531.34;4482897;31;34168;-88
2023/01/12 06:16:04;;;;;;;;;;;;;;;11.85;45.08;99542.47;4478220;32;33345;-82
2023/01/12 06:18:35;;;;;;;;;;;;;;;11.89;45.09;99528.66;4468535;32;33644;-90
2023/01/12 06:21:03;;;;;;;;;;;;;;;11.42;46.04;99534.03;4468922;32;34428;-82
2023/01/12 06:23:30;;;;;;;;;;;;;;;12.06;44.34;99534.97;4482213;32;35090;-81
2023/01/12 06:26:03;;;;;;;;;;;;;;;11.78;44.79;99538.00;4482945;32;33310;-81
2023/01/12 06:28:30;;;;;;;;;;;;;;;11.60;45.21;99549.88;4469032;32;33920;-90
2023/01/12 06:30:58;;;;;;;;;;;;;;;11.78;44.95;99556.19;4482339;32;33764;-83
2023/01/12 06:33:26;;;;;;;;;;;;;;;11.60;44.90;99547.28;4482692;32;34353;-81
2023/01/12 06:35:53;;;;;;;;;;;;;;;11.55;45.38;99550.66;4482192;32;32811;-81
2023/01/12 06:38:22;;;;;;;;;;;;;;;11.77;44.95;99559.63;4467350;32;34230;-86
2023/01/12 06:40:49;;;;;;;;;;;;;;;12.06;44.40;99562.69;4482745;32;33778;-86
2023/01/12 06:43:17;;;;;;;;;;;;;;;11.78;45.36;99584.75;4482557;32;34694;-88
2023/01/12 06:45:44;;;;;;;;;;;;;;;11.93;45.16;99583.31;4481996;32;34090;-87
2023/01/12 06:48:12;;;;;;;;;;;;;;;12.17;44.73;99585.34;4482336;32;34256;-82
2023/01/12 06:50:39;;;;;;;;;;;;;;;12.32;43.75;99583.81;4482289;32;34140;-92
2023/01/12 06:53:06;;;;;;;;;;;;;;;11.39;45.99;99584.16;4482545;32;33636;-90
2023/01/12 06:55:34;;;;;;;;;;;;;;;11.98;44.75;99583.38;4482232;32;33437;-81
2023/01/12 06:58:02;;;;;;;;;;;;;;;12.02;44.96;99587.75;4482099;32;34276;-81
2023/01/12 07:00:30;;;;;;;;;;;;;;;12.23;44.64;99596.66;4483603;32;33878;-91
2023/01/12 07:02:58;;;;;;;;;;;;;;;12.10;44.95;99596.50;4484796;32;33968;-86
2023/01/12 07:05:25;;;;;;;;;;;;;;;12.07;44.84;99593.00;4468861;32;33635;-91
2023/01/12 07:07:56;;;;;;;;;;;;;;;12.25;44.62;99594.97;4479651;32;34165;-89
2023/01/12 07:10:23;;;;;;;;;;;;;;;12.41;44.26;99595.16;4481920;32;33769;-87
2023/01/12 07:12:50;;;;;;;;;;;;;;;12.54;43.84;99591.00;4481976;32;34432;-86
2023/01/12 07:15:17;;;;;;;;;;;;;;;12.18;44.63;99589.69;4482265;32;33791;-87
2023/01/12 07:17:45;;;;;;;;;;;;;;;11.57;45.97;99591.38;4481727;32;34964;-84
2023/01/12 07:20:12;;;;;;;;;;;;;;;11.98;45.40;99591.16;4482290;32;34183;-83
2023/01/12 07:22:39;;;;;;;;;;;;;;;12.04;45.21;99601.62;4482096;32;34247;-87
2023/01/12 07:25:07;;;;;;;;;;;;;;;11.62;46.12;99600.09;4482210;32;32723;-93
2023/01/12 07:27:34;;;;;;;;;;;;;;;12.46;44.41;99608.22;4482849;32;33399;-82
2023/01/12 07:30:01;;;;;;;;;;;;;;;12.35;44.38;99597.72;4484626;32;34050;-89
2023/01/12 07:32:28;;;;;;;;;;;;;;;11.72;45.86;99608.94;4484432;32;33863;-91
2023/01/12 07:34:56;;;;;;;;;;;;;;;12.45;44.40;99623.81;4483508;32;34335;-89
2023/01/12 07:37:23;;;;;;;;;;;;;;;12.31;44.76;99624.53;4484275;32;33713;-91
2023/01/12 07:39:50;;;;;;;;;;;;;;;12.51;44.25;99626.50;4484295;32;34432;-82
2023/01/12 07:42:23;;;;;;;;;;;;;;;12.62;43.38;99627.50;4484355;32;34369;-87
2023/01/12 07:44:51;;;;;;;;;;;;;;;12.49;43.78;99626.47;4484495;32;34264;-81
2023/01/12 07:47:18;;;;;;;;;;;;;;;12.65;43.67;99631.03;4484342;32;34231;-92
2023/01/12 07:49:45;;;;;;;;;;;;;;;12.95;43.31;99632.19;4484041;32;35106;-90
2023/01/12 07:52:13;;;;;;;;;;;;;;;12.53;43.99;99627.37;4484478;32;34288;-91
2023/01/12 07:54:40;;;;;;;;;;;;;;;12.80;43.15;99616.41;4484254;31;32599;-92
2023/01/12 07:57:08;;;;;;;;;;;;;;;13.06;42.83;99616.69;4484267;32;34912;-81
2023/01/12 07:59:36;;;;;;;;;;;;;;;13.28;42.60;99625.63;4470170;32;34579;-84
2023/01/12 08:02:03;;;;;;;;;;;;;;;13.40;42.57;99625.72;4469950;32;34415;-91
2023/01/12 08:04:30;;;;;;;;;;;;;;;13.44;42.57;99626.63;4484198;32;33363;-92
2023/01/12 08:06:58;;;;;;;;;;;;;;;13.45;42.80;99633.56;4483452;32;33956;-85
2023/01/12 08:09:26;;;;;;;;;;;;;;;12.71;44.73;99639.75;4481079;32;34934;-91
2023/01/12 08:11:55;;;;;;;;;;;;;;;13.01;43.83;99632.28;4484112;32;33958;-90
2023/01/12 08:14:23;;;;;;;;;;;;;;;12.95;44.14;99640.00;4484829;32;33962;-93
2023/01/12 08:16:50;;;;;;;;;;;;;;;13.24;43.68;99629.94;4469891;32;34317;-93
2023/01/12 08:19:19;;;;;;;;;;;;;;;13.27;43.76;99629.09;4484279;32;34553;-92
2023/01/12 08:21:57;;;;;;;;;;;;;;;13.34;43.87;99636.09;4469555;32;34699;-90
2023/01/12 08:24:27;;;;;;;;;;;;;;;13.30;44.09;99640.41;4483126;32;34176;-88
2023/01/12 08:26:55;;;;;;;;;;;;;;;13.33;44.24;99644.75;4470201;32;34391;-93
2023/01/12 08:29:29;;;;;;;;;;;;;;;13.46;43.78;99645.75;4484085;32;34371;-91
2023/01/12 08:32:06;;;;;;;;;;;;;;;12.86;45.81;99645.13;4470671;32;33940;-82
2023/01/12 08:34:39;;;;;;;;;;;;;;;12.08;48.38;99639.78;4483984;32;33532;-82
2023/01/12 08:37:07;;;;;;;;;;;;;;;12.17;48.39;99654.66;4484200;32;34265;-82
2023/01/12 08:39:34;;;;;;;;;;;;;;;11.81;49.58;99654.94;4469201;32;34089;-82
2023/01/12 08:42:02;;;;;;;;;;;;;;;12.55;47.91;99655.16;4469726;32;34280;-91
2023/01/12 08:44:35;;;;;;;;;;;;;;;11.48;50.27;99653.56;4454815;31;911514;-83
2023/01/12 08:47:03;;;;;;;;;;;;;;;11.95;49.30;99655.19;4484019;32;33771;-82
2023/01/12 08:49:31;;;;;;;;;;;;;;;11.99;49.34;99660.47;4469411;32;34111;-81
2023/01/12 08:51:58;;;;;;;;;;;;;;;12.03;48.69;99662.25;4469403;32;34103;-82
2023/01/12 08:54:25;;;;;;;;;;;;;;;12.40;48.17;99657.56;4483758;32;35036;-81
2023/01/12 08:56:53;;;;;;;;;;;;;;;11.48;50.77;99658.75;4483709;32;35220;-92
2023/01/12 08:59:20;;;;;;;;;;;;;;;11.74;50.36;99653.97;4483920;32;33968;-82
2023/01/12 09:01:48;;;;;;;;;;;;;;;11.56;50.57;99659.75;4483971;32;33843;-91
2023/01/12 09:04:15;;;;;;;;;;;;;;;11.94;49.92;99659.53;4483546;31;33239;-81
2023/01/12 09:06:43;;;;;;;;;;;;;;;10.33;54.23;99666.03;4483535;31;34082;-82
2023/01/12 09:09:12;;;;;;;;;;;;;;;11.14;52.38;99655.56;4482981;32;34257;-81
2023/01/12 09:11:40;;;;;;;;;;;;;;;10.33;55.34;99671.22;4469550;32;34035;-81
2023/01/12 09:14:07;;;;;;;;;;;;;;;11.35;52.47;99654.19;4470694;32;33300;-84
2023/01/12 09:16:35;;;;;;;;;;;;;;;11.48;52.40;99653.56;4483715;32;33686;-86
2023/01/12 09:19:03;;;;;;;;;;;;;;;11.26;53.09;99646.25;4484058;32;35227;-89
2023/01/12 09:21:30;;;;;;;;;;;;;;;11.73;52.28;99647.03;4483562;32;34201;-81
2023/01/12 09:23:57;;;;;;;;;;;;;;;11.60;52.52;99655.50;4469698;32;34095;-81
2023/01/12 09:26:30;;;;;;;;;;;;;;;11.60;53.10;99665.87;4483785;32;34164;-82
2023/01/12 09:28:58;;;;;;;;;;;;;;;11.04;54.56;99668.34;4469924;32;33947;-82
2023/01/12 09:31:26;;;;;;;;;;;;;;;11.27;54.07;99666.16;4469538;32;34935;-82
2023/01/12 09:33:54;;;;;;;;;;;;;;;11.43;53.43;99663.84;4469688;32;33324;-84
2023/01/12 09:36:22;;;;;;;;;;;;;;;10.55;56.71;99668.22;4483617;32;33605;-81
2023/01/12 09:38:49;;;;;;;;;;;;;;;10.71;56.50;99670.28;4483102;32;34299;-81
2023/01/12 09:46:57;;;;;;;;;;;;;;;10.02;58.91;99678.25;4483367;31;33933;-81
2023/01/12 09:47:18;;;;;;;;;;;;;;;11.24;56.01;99660.91;4482935;32;34755;-86
2023/01/12 09:49:57;;;;;;;;;;;;;;;11.70;54.50;99665.16;4483487;32;34327;-82
2023/01/12 09:52:44;;;;;;;;;;;;;;;12.60;52.30;99655.22;4482062;32;33345;-83
2023/01/12 09:55:21;;;;;;;;;;;;;;;12.54;52.16;99653.44;4483451;32;33622;-82
2023/01/12 09:57:48;;;;;;;;;;;;;;;11.50;54.79;99654.44;4483387;32;33970;-90
2023/01/12 10:00:16;;;;;;;;;;;;;;;11.31;54.86;99655.00;4483636;32;34530;-82
2023/01/12 10:02:45;;;;;;;;;;;;;;;12.54;51.42;99650.84;4483473;32;34437;-82
2023/01/12 10:05:15;;;;;;;;;;;;;;;11.76;52.66;99649.69;4469052;32;34029;-90
2023/01/12 10:07:43;;;;;;;;;;;;;;;10.80;55.77;99648.88;4469290;32;34877;-91
2023/01/12 10:10:12;;;;;;;;;;;;;;;11.48;54.37;99655.25;4482834;32;33768;-81
2023/01/12 10:12:43;;;;;;;;;;;;;;;10.72;56.08;99658.22;4468832;32;33931;-90
2023/01/12 10:15:13;;;;;;;;;;;;;;;9.69;59.14;99661.09;4469244;32;33198;-91
2023/01/12 10:17:44;;;;;;;;;;;;;;;10.61;56.93;99647.62;4483180;32;33936;-86
2023/01/12 10:20:37;;;;;;;;;;;;;;;10.32;57.69;99644.44;4483269;32;34117;-86
2023/01/12 10:23:07;;;;;;;;;;;;;;;11.33;54.98;99633.41;4483011;32;34107;-92
2023/01/12 10:25:48;;;;;;;;;;;;;;;11.26;54.96;99633.28;4483301;32;33426;-81
2023/01/12 10:28:18;;;;;;;;;;;;;;;11.56;53.38;99635.53;4468904;32;34565;-91
2023/01/12 10:30:46;;;;;;;;;;;;;;;11.90;52.56;99626.56;4482936;32;34213;-81
2023/01/12 10:33:14;;;;;;;;;;;;;;;10.51;56.79;99632.72;4482992;32;34405;-91
2023/01/12 10:35:48;;;;;;;;;;;;;;;10.22;58.28;99639.84;4468492;32;34510;-88
2023/01/12 10:38:37;;;;;;;;;;;;;;;11.61;54.25;99639.06;4482665;32;34349;-82
2023/01/12 10:41:16;;;;;;;;;;;;;;;11.47;55.00;99638.81;4482994;32;34091;-82
2023/01/12 10:44:04;;;;;;;;;;;;;;;11.80;53.70;99633.28;4468773;32;34189;-81
2023/01/12 10:46:32;;;;;;;;;;;;;;;12.60;51.66;99630.06;4482681;32;33486;-81
2023/01/12 10:49:18;;;;;;;;;;;;;;;11.27;55.51;99635.03;4482473;32;34310;-81
2023/01/12 10:51:50;;;;;;;;;;;;;;;11.68;54.47;99633.97;4482421;32;35193;-81
2023/01/12 10:54:29;;;;;;;;;;;;;;;12.33;52.80;99621.94;4468372;32;34138;-82
2023/01/12 10:56:59;;;;;;;;;;;;;;;11.64;54.80;99620.94;4468960;32;33008;-88
2023/01/12 10:59:28;;;;;;;;;;;;;;;11.89;53.71;99623.09;4482609;32;34875;-81
2023/01/12 11:02:05;;;;;;;;;;;;;;;12.45;52.50;99621.22;4482323;32;34437;-81
2023/01/12 11:04:51;;;;;;;;;;;;;;;11.43;54.99;99618.84;4484599;32;34365;-81
2023/01/12 11:07:21;;;;;;;;;;;;;;;11.57;54.92;99619.94;4484669;32;33917;-82
2023/01/12 11:09:49;;;;;;;;;;;;;;;12.29;52.39;99620.16;4484590;32;34210;-89
2023/01/12 11:12:19;;;;;;;;;;;;;;;11.77;53.69;99615.06;4470501;32;34216;-88
2023/01/12 11:15:01;;;;;;;;;;;;;;;11.91;53.55;99602.31;4484506;32;34973;-81
2023/01/12 11:17:48;;;;;;;;;;;;;;;11.62;54.79;99607.91;4469074;32;32884;-92
2023/01/12 11:20:38;;;;;;;;;;;;;;;11.38;55.87;99607.53;4456098;32;34193;-82
2023/01/12 11:23:09;;;;;;;;;;;;;;;11.26;56.12;99610.78;4460866;31;35318;-92
2023/01/12 11:25:44;;;;;;;;;;;;;;;11.23;56.01;99613.31;4484790;31;33665;-89
2023/01/12 11:28:13;;;;;;;;;;;;;;;11.47;55.65;99602.47;4470116;32;34053;-81
2023/01/12 11:30:43;;;;;;;;;;;;;;;10.67;58.08;99601.06;4470384;32;33581;-92
2023/01/12 11:33:29;;;;;;;;;;;;;;;10.32;58.99;99599.50;4484409;32;34962;-82
2023/01/12 11:35:56;;;;;;;;;;;;;;;10.65;57.54;99586.34;4484554;32;33892;-82
2023/01/12 11:38:26;;;;;;;;;;;;;;;10.27;58.69;99595.94;4484521;32;33467;-92
2023/01/12 11:40:57;;;;;;;;;;;;;;;10.20;59.46;99598.38;4484399;32;34233;-92
2023/01/12 11:43:49;;;;;;;;;;;;;;;11.33;55.42;99578.03;4470499;32;34207;-92
2023/01/12 11:46:19;;;;;;;;;;;;;;;11.57;54.51;99582.72;4471963;31;34816;-85
2023/01/12 11:48:50;;;;;;;;;;;;;;;11.97;53.72;99571.22;4484256;32;33889;-81
2023/01/12 11:51:17;;;;;;;;;;;;;;;12.06;53.56;99570.47;4470238;32;33483;-81
2023/01/12 11:53:44;;;;;;;;;;;;;;;12.21;53.09;99572.41;4484261;32;33925;-81
2023/01/12 11:56:27;;;;;;;;;;;;;;;12.57;52.45;99578.00;4484159;32;33967;-82
2023/01/12 11:59:14;;;;;;;;;;;;;;;12.29;53.29;99586.38;4484385;32;33400;-85
2023/01/12 12:01:57;;;;;;;;;;;;;;;12.44;52.80;99591.75;4469883;32;33738;-89
2023/01/12 12:04:25;;;;;;;;;;;;;;;12.56;52.43;99575.41;4484369;32;34513;-81
2023/01/12 12:06:55;;;;;;;;;;;;;;;12.54;51.84;99571.91;4484224;32;35041;-81
2023/01/12 12:09:43;;;;;;;;;;;;;;;13.29;50.37;99572.69;4470046;32;33057;-91
2023/01/12 12:12:19;;;;;;;;;;;;;;;11.54;54.73;99583.53;4484115;32;34228;-83
2023/01/12 12:15:15;;;;;;;;;;;;;;;11.81;54.45;99577.88;4482290;32;33990;-82
2023/01/12 12:17:46;;;;;;;;;;;;;;;12.79;51.95;99573.91;4462429;32;34380;-83
2023/01/12 12:20:32;;;;;;;;;;;;;;;12.94;51.76;99573.22;4483745;32;33139;-82
2023/01/12 12:23:18;;;;;;;;;;;;;;;12.55;52.33;99574.53;4484126;32;34035;-82
2023/01/12 12:25:57;;;;;;;;;;;;;;;12.88;51.50;99574.03;4457124;31;34499;-82
2023/01/12 12:28:27;;;;;;;;;;;;;;;13.28;50.57;99578.75;4469967;32;35102;-82
2023/01/12 12:31:12;;;;;;;;;;;;;;;13.03;51.21;99577.62;4482481;32;32892;-81
2023/01/12 12:33:49;;;;;;;;;;;;;;;13.47;50.29;99575.44;4481169;32;34877;-86
2023/01/12 12:36:25;;;;;;;;;;;;;;;13.39;50.42;99571.91;4466559;32;34342;-93
2023/01/12 12:38:53;;;;;;;;;;;;;;;13.20;50.68;99568.25;4469807;32;34179;-88
2023/01/12 12:47:29;;;;;;;;;;;;;;;13.19;51.20;99563.03;4483766;32;34515;-92
2023/01/12 12:49:56;;;;;;;;;;;;;;;13.56;50.22;99559.87;4482845;32;34058;-82
2023/01/12 12:52:24;;;;;;;;;;;;;;;13.72;49.91;99555.66;4457225;32;33420;-82
2023/01/12 12:54:51;;;;;;;;;;;;;;;13.77;49.61;99550.47;4483890;32;34910;-91
2023/01/12 12:57:19;;;;;;;;;;;;;;;12.77;52.23;99554.84;4483946;32;34479;-90
2023/01/12 12:59:53;;;;;;;;;;;;;;;12.45;53.53;99545.81;4483679;32;34160;-81
2023/01/12 13:02:31;;;;;;;;;;;;;;;13.13;51.87;99551.69;4483867;32;34196;-81
2023/01/12 13:05:00;;;;;;;;;;;;;;;13.52;50.55;99558.09;4483886;32;34955;-82
2023/01/12 13:07:32;;;;;;;;;;;;;;;13.65;50.32;99537.38;4483900;32;33868;-82
2023/01/12 13:10:09;;;;;;;;;;;;;;;13.68;49.88;99533.03;4483401;32;35143;-81
2023/01/12 13:12:36;;;;;;;;;;;;;;;13.99;49.21;99546.25;4483274;32;33664;-81
2023/01/12 13:15:13;;;;;;;;;;;;;;;13.18;51.33;99548.25;4469896;32;33821;-81
2023/01/12 13:17:41;;;;;;;;;;;;;;;14.06;48.93;99548.88;4483647;32;34144;-82
2023/01/12 13:20:22;;;;;;;;;;;;;;;14.39;48.05;99543.78;4469670;32;34238;-83
2023/01/12 13:22:52;;;;;;;;;;;;;;;13.20;50.67;99549.16;4483710;32;33491;-82
2023/01/12 13:25:21;;;;;;;;;;;;;;;14.04;48.75;99539.31;4469623;32;33809;-83
2023/01/12 13:27:54;;;;;;;;;;;;;;;13.87;49.26;99544.44;4484022;32;33946;-89
2023/01/12 13:30:21;;;;;;;;;;;;;;;13.97;49.20;99547.94;4483850;32;33947;-81
2023/01/12 13:32:54;;;;;;;;;;;;;;;14.40;48.24;99538.59;4483770;32;34205;-92
2023/01/12 13:35:22;;;;;;;;;;;;;;;14.40;47.85;99535.97;4467858;32;34203;-82